sensor_id;sensor_type;location;lat;lon;timestamp;P1;durP1;ratioP1;P2;durP2;ratioP2
10535;SDS011;5316;49.538;8.352;2023-03-05T04:51:38;17.30;;;11.67;;
10535;SDS011;5316;49.538;8.352;2023-03-05T04:54:07;19.80;;;12.47;;
10535;SDS011;5316;49.538;8.352;2023-03-05T04:56:35;17.80;;;12.27;;
10535;SDS011;5316;49.538;8.352;2023-03-05T04:59:03;19.37;;;12.70;;
10535;SDS011;5316;49.538;8.352;2023-03-05T05:01:30;21.33;;;13.07;;
10535;SDS011;5316;49.538;8.352;2023-03-05T05:03:59;18.33;;;13.17;;
10535;SDS011;5316;49.538;8.352;2023-03-05T05:06:28;18.47;;;12.17;;
10535;SDS011;5316;49.538;8.352;2023-03-05T05:08:56;21.00;;;13.03;;
10535;SDS011;5316;49.538;8.352;2023-03-05T05:11:24;18.93;;;12.63;;
10535;SDS011;5316;49.538;8.352;2023-03-05T05:13:53;17.47;;;12.90;;
10535;SDS011;5316;49.538;8.352;2023-03-05T05:16:21;18.63;;;12.93;;
10535;SDS011;5316;49.538;8.352;2023-03-05T05:18:52;14.77;;;11.47;;
10535;SDS011;5316;49.538;8.352;2023-03-05T05:21:20;18.67;;;12.20;;
10535;SDS011;5316;49.538;8.352;2023-03-05T05:23:52;19.17;;;12.43;;
10535;SDS011;5316;49.538;8.352;2023-03-05T05:26:20;17.80;;;13.23;;
10535;SDS011;5316;49.538;8.352;2023-03-05T05:28:50;19.50;;;12.27;;
10535;SDS011;5316;49.538;8.352;2023-03-05T05:31:19;18.20;;;12.60;;
10535;SDS011;5316;49.538;8.352;2023-03-05T05:33:48;17.50;;;12.93;;
10535;SDS011;5316;49.538;8.352;2023-03-05T05:36:17;17.67;;;12.23;;
10535;SDS011;5316;49.538;8.352;2023-03-05T05:38:46;18.97;;;12.33;;
10535;SDS011;5316;49.538;8.352;2023-03-05T05:41:15;20.07;;;12.53;;
10535;SDS011;5316;49.538;8.352;2023-03-05T05:43:44;20.93;;;12.97;;
10535;SDS011;5316;49.538;8.352;2023-03-05T05:46:16;19.50;;;12.00;;
10535;SDS011;5316;49.538;8.352;2023-03-05T05:48:45;17.73;;;11.93;;
10535;SDS011;5316;49.538;8.352;2023-03-05T05:51:13;16.57;;;11.70;;
10535;SDS011;5316;49.538;8.352;2023-03-05T05:53:44;19.17;;;12.27;;
10535;SDS011;5316;49.538;8.352;2023-03-05T05:56:13;16.80;;;12.37;;
10535;SDS011;5316;49.538;8.352;2023-03-05T05:58:44;18.00;;;12.50;;
10535;SDS011;5316;49.538;8.352;2023-03-05T06:01:14;18.80;;;12.90;;
10535;SDS011;5316;49.538;8.352;2023-03-05T06:03:44;18.17;;;12.77;;
10535;SDS011;5316;49.538;8.352;2023-03-05T06:06:12;17.47;;;12.30;;
10535;SDS011;5316;49.538;8.352;2023-03-05T06:08:40;18.33;;;11.93;;
10535;SDS011;5316;49.538;8.352;2023-03-05T06:11:08;21.50;;;12.13;;
10535;SDS011;5316;49.538;8.352;2023-03-05T06:13:37;17.93;;;12.30;;
10535;SDS011;5316;49.538;8.352;2023-03-05T06:16:06;15.50;;;11.53;;
10535;SDS011;5316;49.538;8.352;2023-03-05T06:18:36;15.27;;;10.70;;
10535;SDS011;5316;49.538;8.352;2023-03-05T06:21:04;19.93;;;11.80;;
10535;SDS011;5316;49.538;8.352;2023-03-05T06:23:33;17.43;;;10.73;;
10535;SDS011;5316;49.538;8.352;2023-03-05T06:26:01;18.23;;;11.23;;
10535;SDS011;5316;49.538;8.352;2023-03-05T06:28:31;19.57;;;10.67;;
10535;SDS011;5316;49.538;8.352;2023-03-05T06:31:01;18.13;;;11.13;;
10535;SDS011;5316;49.538;8.352;2023-03-05T06:33:31;17.63;;;10.77;;
10535;SDS011;5316;49.538;8.352;2023-03-05T06:36:01;19.10;;;10.63;;
10535;SDS011;5316;49.538;8.352;2023-03-05T06:38:31;14.23;;;9.47;;
10535;SDS011;5316;49.538;8.352;2023-03-05T06:41:01;14.40;;;9.80;;
10535;SDS011;5316;49.538;8.352;2023-03-05T06:43:30;14.23;;;9.70;;
10535;SDS011;5316;49.538;8.352;2023-03-05T06:46:04;15.30;;;9.50;;
10535;SDS011;5316;49.538;8.352;2023-03-05T06:48:33;13.87;;;9.20;;
10535;SDS011;5316;49.538;8.352;2023-03-05T06:51:13;15.40;;;9.90;;
10535;SDS011;5316;49.538;8.352;2023-03-05T06:53:41;16.93;;;9.77;;
10535;SDS011;5316;49.538;8.352;2023-03-05T06:56:09;18.90;;;10.50;;
10535;SDS011;5316;49.538;8.352;2023-03-05T06:58:42;16.57;;;10.17;;
10535;SDS011;5316;49.538;8.352;2023-03-05T07:01:12;16.33;;;10.70;;
10535;SDS011;5316;49.538;8.352;2023-03-05T07:03:41;14.63;;;9.60;;
10535;SDS011;5316;49.538;8.352;2023-03-05T07:06:13;16.37;;;9.93;;
10535;SDS011;5316;49.538;8.352;2023-03-05T07:50:02;12.60;;;8.17;;
10535;SDS011;5316;49.538;8.352;2023-03-05T07:52:31;16.43;;;8.57;;
10535;SDS011;5316;49.538;8.352;2023-03-05T07:54:59;16.70;;;9.20;;
10535;SDS011;5316;49.538;8.352;2023-03-05T07:57:32;16.83;;;8.87;;
10535;SDS011;5316;49.538;8.352;2023-03-05T08:00:02;14.13;;;8.43;;
10535;SDS011;5316;49.538;8.352;2023-03-05T08:02:30;16.70;;;9.63;;
10535;SDS011;5316;49.538;8.352;2023-03-05T08:04:59;15.17;;;8.87;;
10535;SDS011;5316;49.538;8.352;2023-03-05T08:07:29;16.70;;;8.53;;
10535;SDS011;5316;49.538;8.352;2023-03-05T08:38:23;9.47;;;5.97;;
10535;SDS011;5316;49.538;8.352;2023-03-05T08:40:52;12.73;;;6.90;;
10535;SDS011;5316;49.538;8.352;2023-03-05T11:59:46;1.50;;;1.20;;
10535;SDS011;5316;49.538;8.352;2023-03-05T12:11:16;2.37;;;1.90;;
10535;SDS011;5316;49.538;8.352;2023-03-05T12:13:47;2.27;;;1.80;;
10535;SDS011;5316;49.538;8.352;2023-03-05T12:16:20;1.60;;;1.43;;
10535;SDS011;5316;49.538;8.352;2023-03-05T12:19:09;2.20;;;1.77;;
10535;SDS011;5316;49.538;8.352;2023-03-05T12:21:59;2.23;;;2.00;;
10535;SDS011;5316;49.538;8.352;2023-03-05T12:24:36;2.20;;;1.60;;
10535;SDS011;5316;49.538;8.352;2023-03-05T12:27:08;2.90;;;1.77;;
10535;SDS011;5316;49.538;8.352;2023-03-05T12:29:42;1.67;;;1.50;;
10535;SDS011;5316;49.538;8.352;2023-03-05T12:35:25;6.10;;;1.97;;
10535;SDS011;5316;49.538;8.352;2023-03-05T12:38:02;2.97;;;2.20;;
10535;SDS011;5316;49.538;8.352;2023-03-05T13:33:33;4.07;;;2.60;;
10535;SDS011;5316;49.538;8.352;2023-03-05T13:36:06;4.83;;;2.70;;
10535;SDS011;5316;49.538;8.352;2023-03-05T13:38:51;6.00;;;3.07;;
10535;SDS011;5316;49.538;8.352;2023-03-05T13:41:23;3.23;;;2.83;;
10535;SDS011;5316;49.538;8.352;2023-03-05T13:43:57;4.80;;;2.70;;
10535;SDS011;5316;49.538;8.352;2023-03-05T13:46:45;6.10;;;3.00;;
10535;SDS011;5316;49.538;8.352;2023-03-05T13:49:17;6.00;;;3.20;;
10535;SDS011;5316;49.538;8.352;2023-03-05T13:51:50;8.10;;;3.20;;
10535;SDS011;5316;49.538;8.352;2023-03-05T13:54:22;5.03;;;3.00;;
10535;SDS011;5316;49.538;8.352;2023-03-05T13:56:52;5.90;;;2.93;;
10535;SDS011;5316;49.538;8.352;2023-03-05T13:59:29;3.73;;;2.83;;
10535;SDS011;5316;49.538;8.352;2023-03-05T14:02:00;4.53;;;2.60;;
10535;SDS011;5316;49.538;8.352;2023-03-05T14:04:33;5.53;;;2.87;;
10535;SDS011;5316;49.538;8.352;2023-03-05T14:09:54;4.13;;;3.03;;
10535;SDS011;5316;49.538;8.352;2023-03-05T14:12:23;3.40;;;2.63;;
10535;SDS011;5316;49.538;8.352;2023-03-05T14:14:54;4.03;;;2.93;;
10535;SDS011;5316;49.538;8.352;2023-03-05T14:17:23;13.20;;;8.43;;
10535;SDS011;5316;49.538;8.352;2023-03-05T14:20:16;24.47;;;12.37;;
10535;SDS011;5316;49.538;8.352;2023-03-05T14:22:49;4.87;;;2.97;;
10535;SDS011;5316;49.538;8.352;2023-03-05T14:25:28;3.87;;;3.20;;
10535;SDS011;5316;49.538;8.352;2023-03-05T14:28:03;4.00;;;2.83;;
10535;SDS011;5316;49.538;8.352;2023-03-05T14:30:31;6.03;;;3.10;;
10535;SDS011;5316;49.538;8.352;2023-03-05T14:33:01;4.87;;;3.63;;
10535;SDS011;5316;49.538;8.352;2023-03-05T14:35:31;4.13;;;2.93;;
10535;SDS011;5316;49.538;8.352;2023-03-05T14:37:58;5.97;;;3.40;;
10535;SDS011;5316;49.538;8.352;2023-03-05T14:40:27;5.73;;;3.20;;
10535;SDS011;5316;49.538;8.352;2023-03-05T14:42:56;5.60;;;3.00;;
10535;SDS011;5316;49.538;8.352;2023-03-05T14:45:25;5.80;;;3.70;;
10535;SDS011;5316;49.538;8.352;2023-03-05T14:47:54;15.47;;;9.37;;
10535;SDS011;5316;49.538;8.352;2023-03-05T14:50:25;6.43;;;3.80;;
10535;SDS011;5316;49.538;8.352;2023-03-05T14:52:55;4.47;;;3.47;;
10535;SDS011;5316;49.538;8.352;2023-03-05T14:55:26;4.93;;;3.43;;
10535;SDS011;5316;49.538;8.352;2023-03-05T14:57:56;4.40;;;3.37;;
10535;SDS011;5316;49.538;8.352;2023-03-05T15:00:28;4.27;;;3.30;;
10535;SDS011;5316;49.538;8.352;2023-03-05T15:02:55;7.50;;;3.63;;
10535;SDS011;5316;49.538;8.352;2023-03-05T15:05:23;5.77;;;3.47;;
10535;SDS011;5316;49.538;8.352;2023-03-05T15:07:50;4.33;;;2.97;;
10535;SDS011;5316;49.538;8.352;2023-03-05T15:10:20;4.97;;;3.27;;
10535;SDS011;5316;49.538;8.352;2023-03-05T15:12:48;3.33;;;2.93;;
10535;SDS011;5316;49.538;8.352;2023-03-05T15:15:17;5.47;;;4.07;;
10535;SDS011;5316;49.538;8.352;2023-03-05T15:17:46;6.17;;;2.87;;
10535;SDS011;5316;49.538;8.352;2023-03-05T15:20:16;8.63;;;4.03;;
10535;SDS011;5316;49.538;8.352;2023-03-05T15:22:45;5.43;;;3.20;;
10535;SDS011;5316;49.538;8.352;2023-03-05T15:25:13;4.17;;;3.13;;
10535;SDS011;5316;49.538;8.352;2023-03-05T15:27:42;4.93;;;3.60;;
10535;SDS011;5316;49.538;8.352;2023-03-05T15:30:12;3.07;;;2.77;;
10535;SDS011;5316;49.538;8.352;2023-03-05T15:32:46;10.20;;;5.30;;
10535;SDS011;5316;49.538;8.352;2023-03-05T15:35:13;2.97;;;2.43;;
10535;SDS011;5316;49.538;8.352;2023-03-05T15:37:40;3.20;;;2.90;;
10535;SDS011;5316;49.538;8.352;2023-03-05T15:40:08;2.67;;;2.43;;
10535;SDS011;5316;49.538;8.352;2023-03-05T15:42:36;3.50;;;2.80;;
10535;SDS011;5316;49.538;8.352;2023-03-05T15:45:08;9.13;;;6.20;;
10535;SDS011;5316;49.538;8.352;2023-03-05T15:47:36;4.10;;;2.63;;
10535;SDS011;5316;49.538;8.352;2023-03-05T15:50:05;2.67;;;2.47;;
10535;SDS011;5316;49.538;8.352;2023-03-05T15:52:33;2.80;;;2.60;;
10535;SDS011;5316;49.538;8.352;2023-03-05T15:55:01;3.80;;;2.40;;
10535;SDS011;5316;49.538;8.352;2023-03-05T15:57:28;2.63;;;2.30;;
10535;SDS011;5316;49.538;8.352;2023-03-05T16:02:42;2.73;;;2.40;;
10535;SDS011;5316;49.538;8.352;2023-03-05T16:05:09;2.67;;;2.30;;
10535;SDS011;5316;49.538;8.352;2023-03-05T16:07:37;2.93;;;2.50;;
10535;SDS011;5316;49.538;8.352;2023-03-05T16:10:09;3.60;;;2.87;;
10535;SDS011;5316;49.538;8.352;2023-03-05T16:12:38;2.43;;;2.23;;
10535;SDS011;5316;49.538;8.352;2023-03-05T16:15:08;4.53;;;2.40;;
10535;SDS011;5316;49.538;8.352;2023-03-05T16:17:38;3.37;;;2.07;;
10535;SDS011;5316;49.538;8.352;2023-03-05T16:20:10;2.40;;;2.20;;
10535;SDS011;5316;49.538;8.352;2023-03-05T16:22:39;3.17;;;2.20;;
10535;SDS011;5316;49.538;8.352;2023-03-05T16:25:07;6.67;;;5.03;;
10535;SDS011;5316;49.538;8.352;2023-03-05T16:27:35;4.60;;;2.20;;
10535;SDS011;5316;49.538;8.352;2023-03-05T16:30:02;5.77;;;2.43;;
10535;SDS011;5316;49.538;8.352;2023-03-05T16:32:32;3.23;;;2.20;;
10535;SDS011;5316;49.538;8.352;2023-03-05T16:35:01;3.83;;;2.77;;
10535;SDS011;5316;49.538;8.352;2023-03-05T16:37:29;3.93;;;2.70;;
10535;SDS011;5316;49.538;8.352;2023-03-05T16:39:57;4.47;;;2.60;;
10535;SDS011;5316;49.538;8.352;2023-03-05T16:42:24;4.37;;;3.40;;
10535;SDS011;5316;49.538;8.352;2023-03-05T16:44:56;3.67;;;2.57;;
10535;SDS011;5316;49.538;8.352;2023-03-05T16:47:25;3.07;;;2.80;;
10535;SDS011;5316;49.538;8.352;2023-03-05T16:49:53;3.97;;;2.80;;
10535;SDS011;5316;49.538;8.352;2023-03-05T16:52:23;2.73;;;2.53;;
10535;SDS011;5316;49.538;8.352;2023-03-05T16:54:51;6.57;;;2.90;;
10535;SDS011;5316;49.538;8.352;2023-03-05T16:57:18;4.77;;;2.80;;
10535;SDS011;5316;49.538;8.352;2023-03-05T16:59:48;2.40;;;2.17;;
10535;SDS011;5316;49.538;8.352;2023-03-05T17:02:15;3.67;;;2.67;;
10535;SDS011;5316;49.538;8.352;2023-03-05T17:04:43;3.13;;;2.17;;
10535;SDS011;5316;49.538;8.352;2023-03-05T17:07:10;3.90;;;2.50;;
10535;SDS011;5316;49.538;8.352;2023-03-05T17:09:39;3.17;;;2.53;;
10535;SDS011;5316;49.538;8.352;2023-03-05T17:12:08;2.47;;;2.20;;
10535;SDS011;5316;49.538;8.352;2023-03-05T17:14:36;3.10;;;2.50;;
10535;SDS011;5316;49.538;8.352;2023-03-05T17:17:05;3.47;;;2.37;;
10535;SDS011;5316;49.538;8.352;2023-03-05T17:19:32;3.63;;;2.33;;
10535;SDS011;5316;49.538;8.352;2023-03-05T17:22:00;2.73;;;2.30;;
10535;SDS011;5316;49.538;8.352;2023-03-05T17:24:27;4.03;;;2.40;;
10535;SDS011;5316;49.538;8.352;2023-03-05T17:26:56;4.97;;;2.93;;
10535;SDS011;5316;49.538;8.352;2023-03-05T17:29:23;4.07;;;2.80;;
10535;SDS011;5316;49.538;8.352;2023-03-05T17:31:50;5.30;;;3.50;;
10535;SDS011;5316;49.538;8.352;2023-03-05T17:34:18;5.27;;;2.80;;
10535;SDS011;5316;49.538;8.352;2023-03-05T17:36:46;3.50;;;2.87;;
10535;SDS011;5316;49.538;8.352;2023-03-05T17:39:14;3.43;;;2.90;;
10535;SDS011;5316;49.538;8.352;2023-03-05T17:41:43;4.77;;;3.07;;
10535;SDS011;5316;49.538;8.352;2023-03-05T17:44:13;6.20;;;3.07;;
10535;SDS011;5316;49.538;8.352;2023-03-05T17:46:40;5.70;;;3.00;;
10535;SDS011;5316;49.538;8.352;2023-03-05T17:49:07;4.67;;;2.83;;
10535;SDS011;5316;49.538;8.352;2023-03-05T17:51:34;4.40;;;3.07;;
10535;SDS011;5316;49.538;8.352;2023-03-05T17:54:02;5.87;;;3.27;;
10535;SDS011;5316;49.538;8.352;2023-03-05T17:56:30;3.30;;;3.00;;
10535;SDS011;5316;49.538;8.352;2023-03-05T17:58:57;5.80;;;3.47;;
10535;SDS011;5316;49.538;8.352;2023-03-05T18:01:32;4.20;;;3.80;;
10535;SDS011;5316;49.538;8.352;2023-03-05T18:04:00;5.30;;;4.07;;
10535;SDS011;5316;49.538;8.352;2023-03-05T18:06:28;7.90;;;4.70;;
10535;SDS011;5316;49.538;8.352;2023-03-05T18:08:55;7.80;;;5.67;;
10535;SDS011;5316;49.538;8.352;2023-03-05T18:11:23;10.87;;;7.63;;
10535;SDS011;5316;49.538;8.352;2023-03-05T18:13:51;10.63;;;7.70;;
10535;SDS011;5316;49.538;8.352;2023-03-05T18:16:18;11.07;;;6.90;;
10535;SDS011;5316;49.538;8.352;2023-03-05T18:18:49;9.20;;;6.10;;
10535;SDS011;5316;49.538;8.352;2023-03-05T18:21:17;8.30;;;4.67;;
10535;SDS011;5316;49.538;8.352;2023-03-05T18:23:45;6.87;;;5.40;;
10535;SDS011;5316;49.538;8.352;2023-03-05T18:26:16;7.13;;;4.80;;
10535;SDS011;5316;49.538;8.352;2023-03-05T18:28:43;6.97;;;5.40;;
10535;SDS011;5316;49.538;8.352;2023-03-05T18:31:11;7.43;;;5.20;;
10535;SDS011;5316;49.538;8.352;2023-03-05T18:33:38;7.47;;;5.83;;
10535;SDS011;5316;49.538;8.352;2023-03-05T18:36:10;8.07;;;5.37;;
10535;SDS011;5316;49.538;8.352;2023-03-05T18:38:40;10.50;;;6.80;;
10535;SDS011;5316;49.538;8.352;2023-03-05T18:41:07;13.00;;;8.20;;
10535;SDS011;5316;49.538;8.352;2023-03-05T18:43:44;19.90;;;10.80;;
10535;SDS011;5316;49.538;8.352;2023-03-05T18:46:11;12.73;;;7.60;;
10535;SDS011;5316;49.538;8.352;2023-03-05T18:48:42;11.17;;;7.17;;
10535;SDS011;5316;49.538;8.352;2023-03-05T18:51:14;10.17;;;6.97;;
10535;SDS011;5316;49.538;8.352;2023-03-05T18:53:45;9.53;;;6.27;;
10535;SDS011;5316;49.538;8.352;2023-03-05T18:56:17;6.97;;;5.60;;
10535;SDS011;5316;49.538;8.352;2023-03-05T18:58:48;10.73;;;5.07;;
10535;SDS011;5316;49.538;8.352;2023-03-05T19:01:18;7.00;;;5.70;;
10535;SDS011;5316;49.538;8.352;2023-03-05T19:03:46;6.00;;;5.40;;
10535;SDS011;5316;49.538;8.352;2023-03-05T19:06:18;6.97;;;5.93;;
10535;SDS011;5316;49.538;8.352;2023-03-05T19:08:50;6.97;;;5.10;;
10535;SDS011;5316;49.538;8.352;2023-03-05T19:11:25;8.37;;;5.40;;
10535;SDS011;5316;49.538;8.352;2023-03-05T19:13:52;8.07;;;5.20;;
10535;SDS011;5316;49.538;8.352;2023-03-05T19:16:22;7.33;;;4.40;;
10535;SDS011;5316;49.538;8.352;2023-03-05T19:18:53;6.30;;;4.20;;
10535;SDS011;5316;49.538;8.352;2023-03-05T19:21:29;4.77;;;4.27;;
10535;SDS011;5316;49.538;8.352;2023-03-05T19:23:57;5.57;;;4.20;;
10535;SDS011;5316;49.538;8.352;2023-03-05T19:26:24;6.37;;;4.47;;
10535;SDS011;5316;49.538;8.352;2023-03-05T19:28:52;12.70;;;9.70;;
10535;SDS011;5316;49.538;8.352;2023-03-05T19:31:19;7.67;;;5.97;;
10535;SDS011;5316;49.538;8.352;2023-03-05T19:33:46;5.30;;;4.83;;
10535;SDS011;5316;49.538;8.352;2023-03-05T19:36:13;5.83;;;5.03;;
10535;SDS011;5316;49.538;8.352;2023-03-05T19:38:41;6.77;;;5.07;;
10535;SDS011;5316;49.538;8.352;2023-03-05T19:41:09;7.97;;;5.07;;
10535;SDS011;5316;49.538;8.352;2023-03-05T19:43:37;8.00;;;5.77;;
10535;SDS011;5316;49.538;8.352;2023-03-05T19:46:11;7.57;;;5.30;;
10535;SDS011;5316;49.538;8.352;2023-03-05T19:48:38;6.40;;;5.57;;
10535;SDS011;5316;49.538;8.352;2023-03-05T19:51:07;7.33;;;5.50;;
10535;SDS011;5316;49.538;8.352;2023-03-05T19:53:37;4.87;;;4.37;;
10535;SDS011;5316;49.538;8.352;2023-03-05T19:56:07;6.90;;;4.47;;
10535;SDS011;5316;49.538;8.352;2023-03-05T19:58:36;7.73;;;5.33;;
10535;SDS011;5316;49.538;8.352;2023-03-05T20:01:08;7.33;;;5.23;;
10535;SDS011;5316;49.538;8.352;2023-03-05T20:03:35;11.63;;;8.70;;
10535;SDS011;5316;49.538;8.352;2023-03-05T20:06:03;8.77;;;5.20;;
10535;SDS011;5316;49.538;8.352;2023-03-05T20:08:31;6.10;;;4.90;;
10535;SDS011;5316;49.538;8.352;2023-03-05T20:10:59;5.87;;;4.63;;
10535;SDS011;5316;49.538;8.352;2023-03-05T20:13:30;5.83;;;4.93;;
10535;SDS011;5316;49.538;8.352;2023-03-05T20:15:57;6.27;;;4.73;;
10535;SDS011;5316;49.538;8.352;2023-03-05T20:18:38;5.13;;;4.63;;
10535;SDS011;5316;49.538;8.352;2023-03-05T20:21:05;8.77;;;7.03;;
10535;SDS011;5316;49.538;8.352;2023-03-05T20:23:32;4.90;;;4.50;;
10535;SDS011;5316;49.538;8.352;2023-03-05T20:26:01;6.90;;;4.83;;
10535;SDS011;5316;49.538;8.352;2023-03-05T20:28:32;5.93;;;4.67;;
10535;SDS011;5316;49.538;8.352;2023-03-05T20:31:00;6.83;;;5.17;;
10535;SDS011;5316;49.538;8.352;2023-03-05T20:33:28;7.23;;;5.50;;
10535;SDS011;5316;49.538;8.352;2023-03-05T20:35:58;6.83;;;5.00;;
10535;SDS011;5316;49.538;8.352;2023-03-05T20:38:25;6.37;;;4.73;;
10535;SDS011;5316;49.538;8.352;2023-03-05T20:40:57;8.10;;;6.10;;
10535;SDS011;5316;49.538;8.352;2023-03-05T21:17:11;6.10;;;4.93;;
10535;SDS011;5316;49.538;8.352;2023-03-05T21:19:40;5.70;;;5.10;;
10535;SDS011;5316;49.538;8.352;2023-03-05T21:22:07;8.07;;;5.03;;
10535;SDS011;5316;49.538;8.352;2023-03-05T21:24:40;5.30;;;4.40;;
10535;SDS011;5316;49.538;8.352;2023-03-05T21:27:27;9.07;;;5.37;;
10535;SDS011;5316;49.538;8.352;2023-03-05T21:29:55;6.27;;;5.37;;
10535;SDS011;5316;49.538;8.352;2023-03-05T21:32:22;6.33;;;5.43;;
10535;SDS011;5316;49.538;8.352;2023-03-05T21:34:51;7.67;;;5.57;;
10535;SDS011;5316;49.538;8.352;2023-03-05T21:37:18;7.40;;;6.00;;
10535;SDS011;5316;49.538;8.352;2023-03-05T21:39:47;7.40;;;6.00;;
10535;SDS011;5316;49.538;8.352;2023-03-05T21:42:14;8.07;;;5.47;;
10535;SDS011;5316;49.538;8.352;2023-03-05T21:44:43;7.00;;;5.97;;
10535;SDS011;5316;49.538;8.352;2023-03-05T21:47:29;8.63;;;6.77;;
10535;SDS011;5316;49.538;8.352;2023-03-05T21:49:56;9.23;;;6.30;;
10535;SDS011;5316;49.538;8.352;2023-03-05T21:52:23;7.10;;;5.83;;
10535;SDS011;5316;49.538;8.352;2023-03-05T21:54:51;9.60;;;5.57;;
10535;SDS011;5316;49.538;8.352;2023-03-05T21:57:19;6.93;;;5.27;;
10535;SDS011;5316;49.538;8.352;2023-03-05T21:59:51;6.30;;;5.57;;
10535;SDS011;5316;49.538;8.352;2023-03-05T22:02:20;7.33;;;5.47;;
10535;SDS011;5316;49.538;8.352;2023-03-05T22:04:48;8.43;;;5.50;;
10535;SDS011;5316;49.538;8.352;2023-03-05T22:07:16;5.93;;;4.97;;
10535;SDS011;5316;49.538;8.352;2023-03-05T22:09:45;5.30;;;4.70;;
10535;SDS011;5316;49.538;8.352;2023-03-05T22:12:12;5.77;;;5.13;;
10535;SDS011;5316;49.538;8.352;2023-03-05T22:14:47;5.53;;;5.00;;
10535;SDS011;5316;49.538;8.352;2023-03-05T22:17:14;5.60;;;4.57;;
10535;SDS011;5316;49.538;8.352;2023-03-05T22:22:33;7.23;;;4.70;;
10535;SDS011;5316;49.538;8.352;2023-03-05T22:25:02;4.93;;;4.50;;
10535;SDS011;5316;49.538;8.352;2023-03-05T22:27:32;6.27;;;4.40;;
10535;SDS011;5316;49.538;8.352;2023-03-05T22:29:59;6.13;;;4.47;;
10535;SDS011;5316;49.538;8.352;2023-03-05T22:32:27;6.03;;;4.97;;
